Time;durP1;ratioP1;P1;durP2;ratioP2;P2;SDS_P1;SDS_P2;PMS_P1;PMS_P2;Temp;Humidity;BMP_temperature;BMP_pressure;BME280_temperature;BME280_humidity;BME280_pressure;Samples;Min_cycle;Max_cycle;Signal;HPM_P1;HPM_P2
2022/07/05 00:01:43;;;;;;;;;1.00;1.00;;;;;21.01;67.83;101954.59;5084968;28;45561;-85
2022/07/05 00:04:09;;;;;;;;;0.25;0.25;;;;;21.02;67.21;101953.75;5085403;28;45310;-91
2022/07/05 00:06:34;;;;;;;;;1.00;1.00;;;;;21.02;67.20;101964.28;5085144;28;45221;-89
2022/07/05 00:09:00;;;;;;;;;2.00;2.00;;;;;20.97;67.83;101960.69;5063383;28;45595;-91
2022/07/05 00:11:26;;;;;;;;;1.00;1.00;;;;;20.95;67.56;101962.41;5083769;28;45957;-91
2022/07/05 00:13:51;;;;;;;;;1.00;1.00;;;;;20.93;68.04;101966.75;5089452;28;45226;-89
2022/07/05 00:16:17;;;;;;;;;1.00;1.00;;;;;20.91;67.53;101963.19;5085943;28;45256;-90
2022/07/05 00:18:43;;;;;;;;;1.00;1.00;;;;;20.91;67.77;101965.81;5061969;28;45352;-84
2022/07/05 00:21:09;;;;;;;;;1.00;1.00;;;;;20.80;67.30;101957.72;5078101;28;45499;-90
2022/07/05 00:23:37;;;;;;;;;2.25;1.00;;;;;20.71;67.34;101961.00;5079030;28;45414;-90
2022/07/05 00:26:02;;;;;;;;;1.00;1.00;;;;;20.64;67.30;101959.09;5079671;28;45419;-91
2022/07/05 00:28:28;;;;;;;;;0.75;0.75;;;;;20.62;68.12;101965.19;5078941;28;45355;-88
2022/07/05 00:30:53;;;;;;;;;1.75;1.00;;;;;20.56;67.62;101960.69;5034708;28;45411;-90
2022/07/05 00:33:19;;;;;;;;;2.00;1.00;;;;;20.52;68.42;101958.81;5058059;28;45244;-91
2022/07/05 00:35:45;;;;;;;;;1.00;1.00;;;;;20.50;68.10;101966.69;5058316;28;45240;-91
2022/07/05 00:38:10;;;;;;;;;1.00;1.00;;;;;20.47;68.89;101960.44;5059477;28;45435;-91
2022/07/05 00:40:36;;;;;;;;;2.00;1.50;;;;;20.44;69.56;101957.78;5058375;28;46255;-91
2022/07/05 00:43:02;;;;;;;;;1.50;1.00;;;;;20.40;70.16;101968.22;5058918;28;45324;-91
2022/07/05 00:45:27;;;;;;;;;2.00;2.00;;;;;20.33;70.26;101968.03;5042018;28;45905;-91
2022/07/05 00:47:53;;;;;;;;;1.25;1.00;;;;;20.29;70.61;101977.59;5059073;28;45316;-90
2022/07/05 00:50:18;;;;;;;;;1.00;1.00;;;;;20.24;69.82;101969.63;5058205;28;46492;-89
2022/07/05 00:52:45;;;;;;;;;2.50;2.50;;;;;20.23;70.84;101972.22;5041107;28;45573;-91
2022/07/05 00:55:10;;;;;;;;;1.75;1.75;;;;;20.18;71.59;101964.22;5076196;28;45492;-89
2022/07/05 00:57:36;;;;;;;;;2.00;2.00;;;;;20.20;72.04;101966.88;5078158;28;45422;-90
2022/07/05 01:00:04;;;;;;;;;3.00;2.00;;;;;20.12;72.08;101971.94;5076857;28;45357;-90
2022/07/05 01:02:30;;;;;;;;;1.25;1.25;;;;;20.05;72.88;101973.53;5058822;28;45431;-89
2022/07/05 01:04:55;;;;;;;;;2.00;2.00;;;;;20.00;73.29;101972.56;5076431;28;45242;-89
2022/07/05 01:07:23;;;;;;;;;3.00;1.00;;;;;19.95;72.90;101968.91;5081609;28;45563;-90
2022/07/05 01:09:48;;;;;;;;;2.25;1.00;;;;;19.88;72.75;101970.50;5078932;27;45500;-90
2022/07/05 01:12:14;;;;;;;;;1.00;1.00;;;;;19.77;74.20;101958.78;5081250;27;45219;-90
2022/07/05 01:14:42;;;;;;;;;2.00;2.00;;;;;19.72;73.34;101966.56;5080115;28;45342;-91
2022/07/05 01:17:08;;;;;;;;;1.00;1.00;;;;;19.72;74.52;101960.44;5061794;28;46237;-90
2022/07/05 01:19:33;;;;;;;;;1.00;1.00;;;;;19.70;73.62;101955.16;5080035;28;45334;-90
2022/07/05 01:22:05;;;;;;;;;3.25;1.50;;;;;19.69;73.48;101961.25;5061625;28;45300;-90
2022/07/05 01:24:31;;;;;;;;;1.00;1.00;;;;;19.59;73.84;101957.47;5080477;28;45307;-89
2022/07/05 01:26:56;;;;;;;;;1.25;1.25;;;;;19.55;74.33;101963.50;5084521;27;45347;-89
2022/07/05 01:29:22;;;;;;;;;1.00;1.00;;;;;19.49;74.31;101961.59;5087856;28;45803;-90
2022/07/05 01:31:48;;;;;;;;;1.00;1.00;;;;;19.48;74.46;101961.56;5087452;28;45387;-89
2022/07/05 01:34:13;;;;;;;;;1.25;1.25;;;;;19.47;74.20;101957.16;5087110;28;45406;-87
2022/07/05 01:36:39;;;;;;;;;1.25;1.25;;;;;19.44;75.03;101962.31;5082720;28;45500;-91
2022/07/05 01:39:07;;;;;;;;;1.00;1.00;;;;;19.44;74.62;101960.59;5064907;28;47514;-91
2022/07/05 01:41:32;;;;;;;;;1.75;1.00;;;;;19.35;75.01;101957.72;5090705;27;45640;-91
2022/07/05 01:43:59;;;;;;;;;1.00;1.00;;;;;19.30;75.44;101956.69;5067564;28;45418;-90
2022/07/05 01:46:29;;;;;;;;;1.00;1.00;;;;;19.23;75.78;101957.38;5079560;28;45454;-90
2022/07/05 01:49:00;;;;;;;;;1.00;1.00;;;;;19.17;76.44;101961.59;5061296;27;45341;-90
2022/07/05 01:51:29;;;;;;;;;2.00;2.00;;;;;19.18;76.19;101952.88;5080738;27;45273;-89
2022/07/05 01:53:55;;;;;;;;;1.00;1.00;;;;;19.21;75.60;101957.34;5089373;27;45352;-90
2022/07/05 01:56:21;;;;;;;;;1.75;1.75;;;;;19.20;76.90;101950.31;5079306;28;45203;-90
2022/07/05 01:58:47;;;;;;;;;1.00;1.00;;;;;19.18;76.95;101959.88;5083329;27;45450;-90
2022/07/05 02:01:13;;;;;;;;;2.75;1.25;;;;;19.17;77.45;101951.09;5084006;27;45775;-86
2022/07/05 02:03:44;;;;;;;;;2.00;1.00;;;;;19.16;77.06;101951.97;5080160;27;45366;-91
2022/07/05 02:06:10;;;;;;;;;1.00;1.00;;;;;19.12;77.13;101951.81;5088614;27;45558;-90
2022/07/05 02:08:35;;;;;;;;;3.00;2.00;;;;;19.08;77.55;101957.84;5079154;28;45614;-90
2022/07/05 02:11:03;;;;;;;;;2.00;2.00;;;;;19.05;77.55;101961.28;5078592;27;45565;-90
2022/07/05 02:13:29;;;;;;;;;1.00;1.00;;;;;18.99;78.66;101947.97;5078822;27;45523;-90
2022/07/05 02:15:55;;;;;;;;;1.00;1.00;;;;;18.92;78.86;101946.00;5061413;27;45452;-88
2022/07/05 02:18:20;;;;;;;;;1.25;1.25;;;;;18.89;78.70;101946.81;5078614;28;45998;-90
2022/07/05 02:20:46;;;;;;;;;1.00;1.00;;;;;18.81;79.44;101943.06;5085997;27;45520;-90
2022/07/05 02:23:11;;;;;;;;;2.00;1.25;;;;;18.80;79.16;101942.19;5095510;27;45392;-90
2022/07/05 02:25:37;;;;;;;;;2.00;2.00;;;;;18.78;79.92;101943.00;5081586;27;45512;-89
2022/07/05 02:28:03;;;;;;;;;2.50;2.50;;;;;18.71;80.16;101936.66;5081875;27;46006;-90
2022/07/05 02:30:29;;;;;;;;;3.00;1.00;;;;;18.69;80.67;101938.34;5080611;27;45888;-90
2022/07/05 02:32:55;;;;;;;;;1.00;1.00;;;;;18.64;81.18;101938.22;5079221;28;45234;-90
2022/07/05 02:35:20;;;;;;;;;1.00;1.00;;;;;18.64;81.50;101938.22;5085469;27;45561;-88
2022/07/05 02:37:46;;;;;;;;;2.00;2.00;;;;;18.66;81.06;101946.13;5098819;27;45415;-89
2022/07/05 02:40:13;;;;;;;;;1.75;1.00;;;;;18.62;81.43;101936.41;5085680;27;45275;-89
2022/07/05 02:42:40;;;;;;;;;1.25;1.00;;;;;18.64;82.15;101947.81;5088584;27;45416;-90
2022/07/05 02:45:06;;;;;;;;;3.00;2.00;;;;;18.65;81.64;101946.97;5082004;27;45379;-90
2022/07/05 02:47:34;;;;;;;;;1.00;1.00;;;;;18.65;82.07;101941.72;5098559;27;46239;-90
2022/07/05 02:50:04;;;;;;;;;0.00;0.00;;;;;18.62;81.92;101946.91;5086822;27;45324;-90
2022/07/05 02:52:30;;;;;;;;;1.25;1.25;;;;;18.60;82.00;101945.94;5107310;27;45436;-90
2022/07/05 02:54:55;;;;;;;;;1.75;1.75;;;;;18.55;82.37;101938.81;5086978;27;45374;-90
2022/07/05 02:57:21;;;;;;;;;2.00;2.00;;;;;18.52;83.47;101943.97;5081629;28;45498;-91
2022/07/05 02:59:46;;;;;;;;;2.75;2.75;;;;;18.44;83.17;101945.47;5099360;27;45387;-90
2022/07/05 03:02:12;;;;;;;;;2.00;2.00;;;;;18.36;83.14;101947.84;5108709;27;45388;-89
2022/07/05 03:04:38;;;;;;;;;2.00;2.00;;;;;18.31;83.95;101941.59;5091671;27;45510;-89
2022/07/05 03:07:04;;;;;;;;;1.75;1.50;;;;;18.24;84.95;101943.13;5093288;28;45402;-88
2022/07/05 03:09:29;;;;;;;;;2.00;2.00;;;;;18.20;86.09;101953.47;5087089;28;45178;-90
2022/07/05 03:11:55;;;;;;;;;2.00;2.00;;;;;18.19;85.76;101951.69;5078859;28;45294;-90
2022/07/05 03:14:21;;;;;;;;;3.00;3.00;;;;;18.12;86.79;101939.25;5079525;28;45155;-91
2022/07/05 03:16:46;;;;;;;;;2.25;2.00;;;;;18.07;86.79;101947.84;5082187;28;46092;-90
2022/07/05 03:19:12;;;;;;;;;4.00;2.25;;;;;18.05;86.81;101938.16;5084350;28;45138;-91
2022/07/05 03:21:37;;;;;;;;;2.50;2.50;;;;;18.07;87.57;101942.59;5079598;27;45209;-90
2022/07/05 03:24:03;;;;;;;;;2.50;2.00;;;;;18.07;87.86;101949.59;5059354;28;45245;-90
2022/07/05 03:26:29;;;;;;;;;3.00;3.00;;;;;18.06;88.56;101950.41;5077464;27;45271;-89
2022/07/05 03:28:55;;;;;;;;;5.50;5.50;;;;;18.04;88.69;101946.84;5059222;28;45422;-93
2022/07/05 03:31:20;;;;;;;;;2.00;2.00;;;;;18.06;88.91;101953.03;5078447;27;45361;-90
2022/07/05 03:33:46;;;;;;;;;3.50;3.50;;;;;18.03;89.77;101953.81;5078250;28;45356;-90
2022/07/05 03:36:11;;;;;;;;;4.25;3.00;;;;;18.00;90.04;101953.72;5079690;27;45824;-91
2022/07/05 03:38:37;;;;;;;;;5.00;4.00;;;;;18.02;90.13;101962.53;5098668;27;45469;-91
2022/07/05 03:41:03;;;;;;;;;3.50;3.50;;;;;17.99;90.28;101951.03;5080108;27;45349;-91
2022/07/05 03:43:28;;;;;;;;;3.00;3.00;;;;;18.03;90.42;101956.44;5096014;27;45432;-90
2022/07/05 03:45:55;;;;;;;;;7.25;4.75;;;;;18.02;91.42;101954.69;5098189;27;45592;-91
2022/07/05 03:48:21;;;;;;;;;3.00;3.00;;;;;17.98;91.70;101962.41;5101939;27;45343;-91
2022/07/05 03:50:47;;;;;;;;;3.50;3.50;;;;;17.97;91.83;101965.84;5087947;27;45343;-91
2022/07/05 03:53:13;;;;;;;;;4.25;4.00;;;;;17.94;92.90;101967.50;5081206;27;45867;-86
2022/07/05 03:55:39;;;;;;;;;2.75;2.75;;;;;17.95;93.06;101970.97;5088817;27;45403;-91
2022/07/05 03:58:04;;;;;;;;;5.25;3.00;;;;;17.94;93.17;101980.59;5105037;27;45250;-96
2022/07/05 04:00:30;;;;;;;;;5.50;4.00;;;;;17.90;94.29;101975.19;5089379;27;45373;-89
2022/07/05 04:02:55;;;;;;;;;5.00;3.50;;;;;17.89;94.44;101979.53;5085617;28;45341;-91
2022/07/05 04:05:21;;;;;;;;;3.75;3.75;;;;;17.94;95.15;101980.59;5084476;28;45853;-89
2022/07/05 04:07:55;;;;;;;;;3.75;3.75;;;;;17.90;94.85;101977.81;5082468;28;45446;-90
2022/07/05 04:10:20;;;;;;;;;4.75;3.75;;;;;17.88;94.75;101979.50;5082727;28;45390;-91
2022/07/05 04:12:47;;;;;;;;;4.25;3.50;;;;;17.89;95.07;101978.66;5081588;28;45621;-88
2022/07/05 04:15:13;;;;;;;;;4.00;4.00;;;;;17.88;95.55;101979.50;5077962;27;45397;-90
2022/07/05 04:17:54;;;;;;;;;2.25;2.25;;;;;17.94;94.90;101984.91;5077473;28;45513;-89
2022/07/05 04:20:21;;;;;;;;;3.25;3.25;;;;;17.97;94.14;101981.56;5077451;28;45427;-90
2022/07/05 04:22:48;;;;;;;;;3.75;3.00;;;;;18.03;94.46;101979.13;5077745;27;45383;-90
2022/07/05 04:25:17;;;;;;;;;4.25;4.00;;;;;18.08;93.05;101995.91;5060688;27;45322;-88
2022/07/05 04:27:43;;;;;;;;;4.00;3.25;;;;;18.10;94.09;101996.84;5097357;27;45683;-85
2022/07/05 04:30:10;;;;;;;;;5.25;4.75;;;;;18.09;93.02;102008.16;5080013;27;45388;-89
2022/07/05 04:32:35;;;;;;;;;4.00;3.50;;;;;18.08;93.04;102006.41;5098402;27;45318;-90
2022/07/05 04:35:01;;;;;;;;;3.50;2.50;;;;;18.06;92.94;101998.47;5079201;27;45307;-90
2022/07/05 04:37:27;;;;;;;;;4.00;4.00;;;;;18.09;92.84;101998.59;5059791;27;45449;-89
2022/07/05 04:39:53;;;;;;;;;7.00;5.00;;;;;18.12;92.42;101994.28;5081814;27;45426;-89
2022/07/05 04:42:18;;;;;;;;;7.75;4.75;;;;;18.09;93.70;101998.59;5097166;27;45443;-90
2022/07/05 04:44:44;;;;;;;;;5.00;5.00;;;;;18.02;93.21;101987.84;5095490;27;46596;-89
2022/07/05 04:47:09;;;;;;;;;6.50;5.50;;;;;18.04;94.31;102001.88;5101144;27;45268;-90
2022/07/05 04:49:35;;;;;;;;;5.25;4.25;;;;;17.99;95.33;101996.50;5101541;27;45237;-90
2022/07/05 04:52:00;;;;;;;;;4.75;4.75;;;;;17.95;95.74;102000.72;5093716;27;45436;-86
2022/07/05 04:54:26;;;;;;;;;6.00;4.50;;;;;17.93;96.43;102009.34;5080616;28;46152;-90
2022/07/05 04:56:51;;;;;;;;;6.75;4.00;;;;;17.95;96.68;102012.91;5080309;28;45211;-90
2022/07/05 04:59:17;;;;;;;;;6.50;5.00;;;;;17.93;97.59;102005.00;5080713;27;45236;-89
2022/07/05 05:01:43;;;;;;;;;3.75;3.75;;;;;17.95;97.36;101999.81;5080653;28;45521;-84
2022/07/05 05:04:08;;;;;;;;;5.25;5.00;;;;;17.97;97.15;102011.28;5092448;27;46507;-89
2022/07/05 05:06:34;;;;;;;;;7.25;4.25;;;;;18.03;96.99;102010.59;5102675;27;45323;-91
2022/07/05 05:08:59;;;;;;;;;5.00;3.25;;;;;18.09;97.19;102013.41;5102288;27;45353;-90
2022/07/05 05:11:25;;;;;;;;;6.75;5.75;;;;;18.11;96.56;102014.34;5094136;27;45651;-90
2022/07/05 05:13:50;;;;;;;;;4.50;4.00;;;;;18.10;97.73;102012.56;5087905;27;45371;-90
2022/07/05 05:16:16;;;;;;;;;4.25;4.00;;;;;18.07;97.92;102012.47;5088004;28;45170;-89
2022/07/05 05:18:41;;;;;;;;;3.75;3.00;;;;;18.05;98.58;102017.66;5085020;27;45400;-89
2022/07/05 05:21:07;;;;;;;;;7.00;4.75;;;;;18.01;98.66;102007.03;5083848;28;45614;-90
2022/07/05 05:23:33;;;;;;;;;4.25;4.25;;;;;18.03;99.49;102010.59;5081568;27;45638;-89
2022/07/05 05:25:58;;;;;;;;;4.00;4.00;;;;;18.06;98.67;102013.31;5064952;27;45572;-89
2022/07/05 05:28:24;;;;;;;;;8.25;5.50;;;;;18.04;99.67;102009.75;5081084;28;45477;-90
2022/07/05 05:30:49;;;;;;;;;5.25;4.75;;;;;18.06;99.70;102018.56;5079552;28;45430;-90
2022/07/05 05:33:15;;;;;;;;;4.00;4.00;;;;;17.98;100.00;102020.91;5088924;27;45483;-87
2022/07/05 05:35:41;;;;;;;;;7.00;3.75;;;;;17.93;100.00;102025.97;5081589;27;45387;-89
2022/07/05 05:38:06;;;;;;;;;7.50;5.00;;;;;17.87;100.00;102025.75;5079948;27;45461;-89
2022/07/05 05:40:33;;;;;;;;;6.00;6.00;;;;;17.84;100.00;102025.66;5077158;28;45292;-89
2022/07/05 05:42:59;;;;;;;;;5.00;4.25;;;;;17.79;100.00;102029.84;5069706;28;45569;-88
2022/07/05 05:45:25;;;;;;;;;6.50;5.50;;;;;17.76;100.00;102028.00;5061445;28;45306;-89
2022/07/05 05:47:53;;;;;;;;;8.25;6.25;;;;;17.79;100.00;102037.69;5079520;27;45414;-89
2022/07/05 05:50:21;;;;;;;;;8.75;6.00;;;;;17.76;100.00;102042.84;5079157;27;45429;-88
2022/07/05 05:52:47;;;;;;;;;11.50;7.25;;;;;17.71;100.00;102041.78;5079906;28;46719;-86
2022/07/05 05:55:13;;;;;;;;;6.75;6.75;;;;;17.70;100.00;102043.53;5092733;28;45745;-83
2022/07/05 05:57:38;;;;;;;;;8.25;6.75;;;;;17.70;100.00;102037.38;5089603;28;45247;-89
2022/07/05 06:00:05;;;;;;;;;7.25;6.50;;;;;17.71;100.00;102040.03;5100233;27;45601;-83
2022/07/05 06:02:31;;;;;;;;;9.50;7.00;;;;;17.73;100.00;102037.50;5102987;27;45491;-87
2022/07/05 06:04:56;;;;;;;;;7.25;7.00;;;;;17.70;100.00;102035.66;5100892;27;45291;-83
2022/07/05 06:07:22;;;;;;;;;11.50;8.50;;;;;17.72;100.00;102038.31;5101791;27;45534;-91
2022/07/05 06:09:48;;;;;;;;;7.75;5.75;;;;;17.73;100.00;102042.72;5098589;27;45766;-89
2022/07/05 06:12:13;;;;;;;;;6.50;6.00;;;;;17.73;100.00;102042.72;5101945;27;45299;-87
2022/07/05 06:14:39;;;;;;;;;6.00;6.00;;;;;17.73;100.00;102047.97;5088350;27;45380;-89
2022/07/05 06:17:05;;;;;;;;;7.50;7.50;;;;;17.75;100.00;102043.69;5078858;28;45400;-85
2022/07/05 06:19:30;;;;;;;;;5.00;4.75;;;;;17.75;100.00;102047.19;5079333;27;45542;-90
2022/07/05 06:21:56;;;;;;;;;7.50;7.50;;;;;17.79;100.00;102049.09;5081394;28;45615;-89
2022/07/05 06:24:21;;;;;;;;;10.00;7.00;;;;;17.83;100.00;102049.16;5108509;27;44799;-82
2022/07/05 06:26:47;;;;;;;;;7.00;6.75;;;;;17.86;100.00;102050.19;5086873;27;45455;-83
2022/07/05 06:29:12;;;;;;;;;10.50;8.00;;;;;17.87;100.00;102054.56;5084421;27;45164;-84
2022/07/05 06:31:38;;;;;;;;;5.75;5.75;;;;;17.90;100.00;102052.06;5084624;27;46038;-83
2022/07/05 06:34:04;;;;;;;;;8.00;7.75;;;;;17.90;100.00;102048.56;5088359;27;45454;-85
2022/07/05 06:36:29;;;;;;;;;6.00;5.00;;;;;17.96;100.00;102056.63;5077546;27;45375;-85
2022/07/05 06:38:55;;;;;;;;;7.25;6.25;;;;;18.05;100.00;102058.72;5078754;28;45646;-90
2022/07/05 06:41:20;;;;;;;;;8.50;7.75;;;;;18.10;100.00;102052.78;5082354;28;45402;-91
2022/07/05 06:43:46;;;;;;;;;8.75;8.50;;;;;18.15;100.00;102050.31;5060122;28;45456;-86
2022/07/05 06:46:12;;;;;;;;;7.25;7.25;;;;;18.22;100.00;102056.66;5078235;28;45426;-89
2022/07/05 06:48:37;;;;;;;;;9.25;7.50;;;;;18.29;100.00;102053.38;5079292;27;45667;-87
2022/07/05 06:51:03;;;;;;;;;8.75;6.75;;;;;18.33;100.00;102057.00;5066104;27;46971;-89
2022/07/05 06:53:29;;;;;;;;;12.25;8.50;;;;;18.31;100.00;102056.03;5081421;28;45287;-91
2022/07/05 06:55:54;;;;;;;;;9.00;6.25;;;;;18.31;100.00;102056.03;5080511;28;45422;-90
2022/07/05 06:58:23;;;;;;;;;10.50;10.00;;;;;18.34;100.00;102066.66;5065351;28;45515;-88
2022/07/05 07:00:49;;;;;;;;;11.75;9.00;;;;;18.35;100.00;102052.69;5080831;27;46104;-88
2022/07/05 07:03:15;;;;;;;;;10.25;8.00;;;;;18.37;100.00;102057.16;5061604;28;45186;-90
2022/07/05 07:05:40;;;;;;;;;7.25;7.25;;;;;18.44;100.00;102058.22;5082764;27;45426;-92
2022/07/05 07:10:50;;;;;;;;;11.00;10.50;;;;;18.44;100.00;102050.38;5086709;28;45564;-87
2022/07/05 07:13:16;;;;;;;;;8.50;7.75;;;;;18.47;100.00;102053.09;5079082;28;45715;-88
2022/07/05 07:15:42;;;;;;;;;9.00;8.50;;;;;18.48;100.00;102054.88;5066142;28;45264;-87
2022/07/05 07:18:08;;;;;;;;;7.00;7.00;;;;;18.52;100.00;102059.38;5066980;27;45438;-83
2022/07/05 07:20:33;;;;;;;;;8.50;7.50;;;;;18.56;100.00;102056.00;5066183;28;47052;-86
2022/07/05 07:22:59;;;;;;;;;12.75;9.50;;;;;18.64;100.00;102063.22;5080301;28;45473;-80
2022/07/05 07:25:25;;;;;;;;;7.00;7.00;;;;;18.69;100.00;102064.28;5077023;28;45427;-80
2022/07/05 07:27:53;;;;;;;;;8.00;5.75;;;;;18.72;100.00;102067.00;5058856;28;45332;-81
2022/07/05 07:30:25;;;;;;;;;6.75;6.75;;;;;18.75;100.00;102064.44;5076390;28;45419;-79
2022/07/05 07:32:51;;;;;;;;;8.00;8.00;;;;;18.77;100.00;102065.41;5076011;27;45232;-79
2022/07/05 07:35:17;;;;;;;;;12.75;7.50;;;;;18.81;100.00;102072.53;5058105;28;45334;-80
2022/07/05 07:37:42;;;;;;;;;8.00;8.00;;;;;18.85;100.00;102071.75;5077163;27;45549;-80
2022/07/05 07:40:09;;;;;;;;;11.00;9.00;;;;;18.92;100.00;102079.84;5077354;28;45276;-80
2022/07/05 07:42:34;;;;;;;;;7.75;7.75;;;;;18.97;100.00;102076.56;5075969;28;45679;-80
2022/07/05 07:45:03;;;;;;;;;8.00;6.50;;;;;19.00;100.00;102074.03;5075215;27;45521;-80
2022/07/05 07:47:30;;;;;;;;;8.00;7.25;;;;;19.00;100.00;102068.78;5076366;27;45387;-80
2022/07/05 07:49:55;;;;;;;;;8.75;7.00;;;;;19.05;100.00;102078.50;5074536;28;46081;-80
2022/07/05 07:52:21;;;;;;;;;10.50;9.00;;;;;19.02;100.00;102082.81;5074448;28;45607;-81
2022/07/05 07:54:46;;;;;;;;;8.50;7.75;;;;;19.06;100.00;102080.28;5057457;28;45393;-80
2022/07/05 07:57:12;;;;;;;;;10.25;9.25;;;;;19.09;100.00;102081.25;5076794;27;45815;-81
2022/07/05 07:59:38;;;;;;;;;11.75;9.00;;;;;19.14;100.00;102086.66;5075484;28;46060;-80
2022/07/05 08:02:04;;;;;;;;;10.00;8.50;;;;;19.18;100.00;102088.53;5074812;28;45379;-81
2022/07/05 08:04:29;;;;;;;;;8.25;7.50;;;;;19.21;100.00;102086.00;5074360;28;45444;-81
2022/07/05 08:06:55;;;;;;;;;8.00;6.75;;;;;19.24;100.00;102090.47;5057123;28;45329;-80
2022/07/05 08:09:20;;;;;;;;;8.00;7.25;;;;;19.27;100.00;102082.69;5075790;28;46569;-79
2022/07/05 08:11:46;;;;;;;;;8.00;6.00;;;;;19.24;99.01;102070.31;5075517;27;45425;-79
2022/07/05 08:14:13;;;;;;;;;9.00;8.00;;;;;19.31;99.07;102079.28;5075691;28;45324;-80
2022/07/05 08:16:39;;;;;;;;;6.50;6.50;;;;;19.31;99.09;102080.19;5075826;28;45549;-80
2022/07/05 08:21:49;;;;;;;;;8.75;7.00;;;;;19.42;99.08;102075.22;5075315;27;45268;-80
2022/07/05 08:24:15;;;;;;;;;7.00;7.00;;;;;19.46;98.27;102070.94;5076010;28;45324;-80
2022/07/05 08:26:41;;;;;;;;;8.75;8.00;;;;;19.52;97.69;102067.59;5076334;27;45570;-80
2022/07/05 08:29:09;;;;;;;;;8.75;8.50;;;;;19.55;95.27;102070.31;5076319;28;45254;-84
2022/07/05 08:31:38;;;;;;;;;6.25;5.00;;;;;19.55;95.50;102068.56;5076179;27;45172;-85
2022/07/05 08:34:04;;;;;;;;;7.50;7.50;;;;;19.60;95.29;102069.59;5076530;28;45406;-85
2022/07/05 08:36:30;;;;;;;;;7.75;7.25;;;;;19.62;94.54;102064.38;5077506;28;45385;-85
2022/07/05 08:38:56;;;;;;;;;7.75;6.50;;;;;19.64;94.26;102062.69;5060332;28;47882;-85
2022/07/05 08:41:23;;;;;;;;;8.75;8.25;;;;;19.66;93.65;102068.88;5078245;28;45422;-85
2022/07/05 08:43:53;;;;;;;;;8.00;8.00;;;;;19.69;93.68;102054.94;5075960;28;45428;-84
2022/07/05 08:46:20;;;;;;;;;7.00;7.00;;;;;19.72;93.12;102061.16;5076188;28;45366;-86
2022/07/05 08:48:51;;;;;;;;;6.75;6.75;;;;;19.74;92.10;102053.31;5079183;28;45402;-85
2022/07/05 08:51:26;;;;;;;;;8.00;7.25;;;;;19.77;90.83;102056.00;5079779;28;45418;-84
2022/07/05 08:53:55;;;;;;;;;8.75;8.00;;;;;19.77;89.86;102054.28;5077867;27;45396;-83
2022/07/05 08:56:22;;;;;;;;;7.50;7.50;;;;;19.77;89.88;102063.91;5078346;27;45438;-83
2022/07/05 08:58:50;;;;;;;;;8.00;8.00;;;;;19.78;90.06;102058.72;5060672;28;47816;-84
2022/07/05 09:01:16;;;;;;;;;10.25;8.25;;;;;19.80;90.06;102059.66;5058704;28;45451;-85
2022/07/05 09:03:52;;;;;;;;;8.00;7.00;;;;;19.86;87.27;102058.03;5079140;27;45392;-84
2022/07/05 09:06:20;;;;;;;;;6.00;6.00;;;;;19.82;87.34;102043.91;5063759;28;45430;-84
2022/07/05 09:08:48;;;;;;;;;7.25;6.00;;;;;19.88;87.53;102053.72;5065844;28;46988;-83
2022/07/05 09:11:15;;;;;;;;;6.25;5.00;;;;;19.88;86.92;102046.72;5065696;28;45779;-84
2022/07/05 09:13:55;;;;;;;;;6.75;6.75;;;;;19.93;86.41;102044.19;5063326;28;45453;-84
2022/07/05 09:16:24;;;;;;;;;7.50;6.00;;;;;20.04;85.36;102055.88;5061436;28;45240;-83
2022/07/05 09:18:54;;;;;;;;;6.25;6.25;;;;;20.08;85.39;102055.13;5077839;28;45402;-84
2022/07/05 09:21:22;;;;;;;;;7.25;5.50;;;;;20.13;82.65;102051.72;5076823;28;45325;-85
2022/07/05 09:24:02;;;;;;;;;7.25;6.75;;;;;20.18;83.34;102048.38;5076903;28;45292;-84
2022/07/05 09:26:43;;;;;;;;;4.50;4.50;;;;;20.24;82.10;102050.25;5078244;28;45425;-82
2022/07/05 09:29:11;;;;;;;;;5.00;5.00;;;;;20.25;81.48;102041.50;5078708;27;45470;-85
2022/07/05 09:31:41;;;;;;;;;8.50;5.00;;;;;20.26;78.69;102036.28;5061340;28;45456;-85
2022/07/05 09:34:11;;;;;;;;;5.00;4.00;;;;;20.36;75.34;102054.91;5085499;27;45219;-85
2022/07/05 09:37:01;;;;;;;;;3.75;3.25;;;;;20.43;74.70;102064.72;5067812;28;45442;-84
2022/07/05 09:39:30;;;;;;;;;4.75;4.00;;;;;20.40;75.71;102057.66;5082880;27;45357;-84
2022/07/05 09:42:21;;;;;;;;;4.00;4.00;;;;;20.37;75.24;102049.69;5081432;27;45393;-84
2022/07/05 09:44:54;;;;;;;;;5.00;5.00;;;;;20.39;75.60;102055.00;5061117;28;45482;-85
2022/07/05 09:47:24;;;;;;;;;5.00;5.00;;;;;20.38;76.05;102050.59;5055720;28;45253;-83
2022/07/05 09:49:54;;;;;;;;;4.00;4.00;;;;;20.46;76.31;102058.69;5078663;27;46572;-84
2022/07/05 09:52:49;;;;;;;;;;;;;;;;;;;;;
2022/07/05 09:55:18;;;;;;;;;4.00;4.00;;;;;20.51;76.15;102043.88;5071182;28;68061;-85
2022/07/05 09:57:46;;;;;;;;;4.00;4.00;;;;;20.61;76.95;102048.50;5063252;28;45186;-84
2022/07/05 10:00:17;;;;;;;;;6.50;6.50;;;;;20.70;77.15;102053.09;5064584;28;47794;-83
2022/07/05 10:02:48;;;;;;;;;7.00;6.00;;;;;20.79;76.73;102040.16;5086224;28;45326;-83
2022/07/05 10:05:22;;;;;;;;;5.00;5.00;;;;;20.87;75.91;102043.84;5066120;28;45423;-84
2022/07/05 10:07:50;;;;;;;;;6.25;6.25;;;;;20.93;74.96;102047.47;5079197;28;45386;-84
2022/07/05 10:10:22;;;;;;;;;5.50;5.00;;;;;21.00;74.28;102047.63;5079029;27;45357;-84
2022/07/05 10:12:52;;;;;;;;;3.50;3.00;;;;;21.05;72.39;102047.75;5079695;27;45481;-83
2022/07/05 10:15:22;;;;;;;;;1.00;1.00;;;;;21.10;71.82;102042.56;5062228;28;45678;-84
2022/07/05 10:17:55;;;;;;;;;5.25;5.00;;;;;21.13;72.22;102050.50;5079896;27;45414;-83
2022/07/05 10:20:37;;;;;;;;;6.25;5.00;;;;;21.14;71.54;102057.56;5079430;28;45616;-82
2022/07/05 10:23:04;;;;;;;;;3.75;2.75;;;;;21.12;70.83;102048.75;5060195;28;45966;-82
2022/07/05 10:25:30;;;;;;;;;6.75;4.00;;;;;21.13;70.11;102054.06;5058242;28;45430;-81
2022/07/05 10:27:58;;;;;;;;;5.75;5.25;;;;;21.15;67.92;102052.34;5081372;28;45556;-80
2022/07/05 10:30:24;;;;;;;;;6.00;6.00;;;;;21.18;67.79;102056.78;5085226;28;46206;-80
2022/07/05 10:32:51;;;;;;;;;5.00;5.00;;;;;21.19;68.41;102059.44;5080210;27;45367;-83
2022/07/05 10:35:17;;;;;;;;;7.00;5.50;;;;;21.21;68.84;102061.22;5078203;28;45372;-80
2022/07/05 10:37:44;;;;;;;;;5.00;5.00;;;;;21.24;69.15;102056.03;5059729;28;45304;-82
2022/07/05 10:40:10;;;;;;;;;5.75;3.25;;;;;21.27;69.29;102050.81;5077500;27;45994;-81
2022/07/05 10:42:40;;;;;;;;;5.00;5.00;;;;;21.29;68.76;102038.56;5077990;28;45753;-90
2022/07/05 10:45:39;;;;;;;;;5.75;5.75;;;;;21.42;68.19;102043.22;5059951;28;45387;-80
2022/07/05 10:48:24;;;;;;;;;6.00;5.75;;;;;21.52;67.34;102041.66;5023667;28;45469;-82
2022/07/05 10:50:57;;;;;;;;;6.50;5.00;;;;;21.57;65.63;102042.63;5078841;27;45620;-89
2022/07/05 10:53:25;;;;;;;;;2.00;2.00;;;;;21.58;64.10;102033.84;5082692;27;45638;-90
2022/07/05 10:55:59;;;;;;;;;4.25;4.25;;;;;21.64;64.63;102043.66;5086061;28;45370;-87
2022/07/05 10:58:32;;;;;;;;;5.75;5.25;;;;;21.65;63.98;102041.03;5065616;28;45256;-82
2022/07/05 11:01:15;;;;;;;;;4.50;4.50;;;;;21.67;65.02;102030.53;5079922;27;45398;-87
2022/07/05 11:04:05;;;;;;;;;6.00;5.00;;;;;21.71;64.04;102037.63;5077325;28;45748;-86
2022/07/05 11:06:33;;;;;;;;;4.00;3.25;;;;;21.76;63.55;102035.06;5075430;28;45481;-88
2022/07/05 11:09:02;;;;;;;;;4.50;4.00;;;;;21.80;63.58;102039.56;5082257;28;45332;-87
2022/07/05 11:11:33;;;;;;;;;5.50;5.50;;;;;21.87;63.32;102037.91;5062093;28;46898;-86
2022/07/05 11:14:25;;;;;;;;;3.75;3.75;;;;;22.03;63.44;102037.31;5077913;28;45374;-84
2022/07/05 11:17:12;;;;;;;;;6.50;4.50;;;;;22.20;63.46;102037.59;5078162;27;45516;-85
2022/07/05 11:20:15;;;;;;;;;3.75;3.75;;;;;22.34;62.76;102035.19;5071273;27;45512;-83
2022/07/05 11:23:01;;;;;;;;;4.00;4.00;;;;;22.45;62.18;102026.59;5083076;28;45934;-84
2022/07/05 11:25:30;;;;;;;;;5.00;5.00;;;;;22.53;61.04;102030.22;5090449;28;45277;-83
2022/07/05 11:28:13;;;;;;;;;4.00;4.00;;;;;22.62;61.28;102035.63;5065616;28;45359;-91
2022/07/05 11:30:46;;;;;;;;;3.75;3.75;;;;;22.79;60.77;102013.81;5045365;28;45288;-84
2022/07/05 11:33:42;;;;;;;;;5.00;5.00;;;;;23.07;59.79;102030.91;5079247;28;46514;-85